Gold Run, California
Current Conditions -  °F | °C
As of 4:00 AM on Sunday 25 Jan 2015 (Local Time) from KGOO Reporting Station
Clear Clear  
Wind Chill: 63°   Ceiling: Unl
Heat Index: 63°   Visibility: 10mi
Dew Point: 27°   Wind: 6mph
Humidity: 26%   Direction: 90°E
Pressure: 30.21"   Gusts: NA
Location:  39.18°N, 120.85°W
Report Text: KGOO 251200Z AUTO 09005KT 10SM CLR 17/M03 A3021 RMK AO1
Loading
Personal Weather Stations






























Interactive Weather Map New forecast layout! Learn more

10-Day Weather Forecast

Advertisements
Track Severe Weather on mobile